createdAt,value
2022-10-07T00:01:10.502Z,102204.09
2022-10-07T00:03:38.687Z,102205.25
2022-10-07T00:06:07.909Z,102200.19
2022-10-07T00:08:37.305Z,102191.72
2022-10-07T00:11:12.694Z,102194.25
2022-10-07T00:13:42.680Z,102198.59
2022-10-07T00:16:13.967Z,102197.78
2022-10-07T00:18:42.627Z,102195.72
2022-10-07T00:21:13.188Z,102198.00
2022-10-07T00:23:44.593Z,102194.13
2022-10-07T00:26:18.809Z,102203.69
2022-10-07T00:28:47.245Z,102195.66
2022-10-07T00:31:21.778Z,102189.28
2022-10-07T00:33:49.941Z,102187.38
2022-10-07T00:36:26.821Z,102179.09
2022-10-07T00:38:57.737Z,102178.69
2022-10-07T00:41:50.504Z,102178.91
2022-10-07T00:44:36.400Z,102169.25
2022-10-07T00:47:11.687Z,102170.84
2022-10-07T00:49:45.763Z,102167.25
2022-10-07T00:52:16.377Z,102165.44
2022-10-07T00:54:44.308Z,102164.09
2022-10-07T00:57:12.433Z,102171.25
2022-10-07T00:59:40.166Z,102160.88
2022-10-07T01:02:10.130Z,102156.06
2022-10-07T01:04:39.199Z,102161.03
2022-10-07T01:07:07.144Z,102154.06
2022-10-07T01:09:35.439Z,102147.28
2022-10-07T01:12:30.654Z,102148.84
2022-10-07T01:15:10.782Z,102154.13
2022-10-07T01:17:53.266Z,102137.97
2022-10-07T01:20:32.377Z,102143.97
2022-10-07T01:23:14.983Z,102134.66
2022-10-07T01:26:20.591Z,102133.50
2022-10-07T01:28:54.210Z,102130.84
2022-10-07T01:31:25.933Z,102116.84
2022-10-07T01:33:55.563Z,102119.69
2022-10-07T01:36:27.278Z,102118.94
2022-10-07T01:39:02.661Z,102121.44
2022-10-07T01:41:33.406Z,102124.91
2022-10-07T01:44:03.048Z,102123.00
2022-10-07T01:46:31.369Z,102119.41
2022-10-07T01:49:01.750Z,102117.69
2022-10-07T01:51:33.878Z,102113.75
2022-10-07T01:54:19.941Z,102114.50
2022-10-07T01:57:14.964Z,102109.41
2022-10-07T01:59:45.690Z,102104.56
2022-10-07T02:02:33.535Z,102108.47
2022-10-07T02:05:16.300Z,102095.47
2022-10-07T02:08:19.322Z,102094.63
2022-10-07T02:11:12.206Z,102091.47
2022-10-07T02:14:12.025Z,102089.78
2022-10-07T02:16:45.718Z,102080.88
2022-10-07T02:19:41.351Z,102085.53
2022-10-07T02:22:11.096Z,102079.50
2022-10-07T02:24:40.451Z,102083.00
2022-10-07T02:27:13.958Z,102073.88
2022-10-07T02:29:46.912Z,102078.19
2022-10-07T02:32:20.395Z,102081.50
2022-10-07T02:34:54.388Z,102075.47
2022-10-07T02:37:27.852Z,102078.44
2022-10-07T02:39:57.855Z,102083.19
2022-10-07T02:42:39.929Z,102071.09
2022-10-07T02:45:21.185Z,102076.38
2022-10-07T02:48:04.299Z,102072.34
2022-10-07T02:50:38.657Z,102067.81
2022-10-07T02:53:08.003Z,102074.16
2022-10-07T02:55:36.841Z,102064.53
2022-10-07T02:58:08.756Z,102059.66
2022-10-07T03:00:42.464Z,102062.09
2022-10-07T03:03:10.868Z,102070.78
2022-10-07T03:05:49.564Z,102062.81
2022-10-07T03:08:20.046Z,102062.91
2022-10-07T03:10:48.368Z,102065.13
2022-10-07T03:13:16.456Z,102058.56
2022-10-07T03:15:49.831Z,102061.34
2022-10-07T03:18:28.696Z,102056.25
2022-10-07T03:21:17.323Z,102060.84
2022-10-07T03:23:50.719Z,102054.97
2022-10-07T03:26:19.259Z,102048.84
2022-10-07T03:28:49.250Z,102047.59
2022-10-07T03:31:17.850Z,102052.44
2022-10-07T03:33:50.223Z,102051.72
2022-10-07T03:36:19.788Z,102055.69
2022-10-07T03:38:48.759Z,102047.16
2022-10-07T03:41:17.849Z,102048.34
2022-10-07T03:43:47.517Z,102045.00
2022-10-07T03:46:20.476Z,102045.19
2022-10-07T03:48:48.630Z,102048.59
2022-10-07T03:51:16.240Z,102040.34
2022-10-07T03:53:43.866Z,102048.28
2022-10-07T03:56:13.072Z,102043.09
2022-10-07T03:58:43.044Z,102040.81
2022-10-07T04:01:15.242Z,102045.97
2022-10-07T04:03:53.767Z,102037.69
2022-10-07T04:06:21.809Z,102043.34
2022-10-07T04:08:55.482Z,102041.63
2022-10-07T04:11:24.569Z,102041.75
2022-10-07T04:13:55.770Z,102046.16
2022-10-07T04:16:26.321Z,102036.50
2022-10-07T04:18:56.139Z,102040.72
2022-10-07T04:21:24.965Z,102037.16
2022-10-07T04:23:52.637Z,102037.00
2022-10-07T04:26:20.293Z,102043.56
2022-10-07T04:28:50.201Z,102035.72
2022-10-07T04:31:23.987Z,102037.41
2022-10-07T04:33:59.934Z,102041.13
2022-10-07T04:36:33.290Z,102043.94
2022-10-07T04:39:15.667Z,102044.16
2022-10-07T04:41:54.775Z,102033.56
2022-10-07T04:44:27.440Z,102032.50
2022-10-07T04:47:00.496Z,102033.53
2022-10-07T04:49:31.105Z,102033.19
2022-10-07T04:52:00.773Z,102036.94
2022-10-07T04:54:34.204Z,102035.25
2022-10-07T04:57:01.912Z,102030.38
2022-10-07T04:59:30.202Z,102025.00
2022-10-07T05:01:59.356Z,102032.81
2022-10-07T05:04:28.638Z,102031.78
2022-10-07T05:06:57.575Z,102037.88
2022-10-07T05:09:26.218Z,102032.75
2022-10-07T05:11:57.713Z,102036.31
2022-10-07T05:14:25.461Z,102034.03
2022-10-07T05:16:54.058Z,102038.81
2022-10-07T05:19:25.950Z,102042.28
2022-10-07T05:21:55.256Z,102038.19
2022-10-07T05:24:24.323Z,102031.97
2022-10-07T05:26:51.921Z,102036.22
2022-10-07T05:29:19.699Z,102033.97
2022-10-07T05:31:51.031Z,102050.38
2022-10-07T05:34:21.986Z,102042.34
2022-10-07T05:36:49.809Z,102036.09
2022-10-07T05:39:17.519Z,102036.75
2022-10-07T05:41:52.235Z,102041.72
2022-10-07T05:44:25.480Z,102037.19
2022-10-07T05:46:55.946Z,102033.59
2022-10-07T05:49:24.851Z,102033.09
2022-10-07T05:51:52.791Z,102035.00
2022-10-07T05:54:20.911Z,102034.06
2022-10-07T05:56:49.612Z,102032.78
2022-10-07T05:59:20.801Z,102034.06
2022-10-07T06:01:49.519Z,102035.53
2022-10-07T06:04:21.586Z,102029.31
2022-10-07T06:06:52.169Z,102033.03
2022-10-07T06:09:39.069Z,102032.16
2022-10-07T06:12:32.359Z,102027.91
2022-10-07T06:15:03.727Z,102025.16
2022-10-07T06:17:31.309Z,102025.66
2022-10-07T06:20:01.235Z,102030.31
2022-10-07T06:22:29.419Z,102031.69
2022-10-07T06:24:58.953Z,102023.56
2022-10-07T06:27:27.773Z,102031.94
2022-10-07T06:29:56.076Z,102032.94
2022-10-07T06:32:23.723Z,102036.22
2022-10-07T06:34:51.763Z,102034.47
2022-10-07T06:37:20.702Z,102036.56
2022-10-07T06:39:48.558Z,102030.69
2022-10-07T06:42:17.526Z,102033.56
2022-10-07T06:45:00.107Z,102033.16
2022-10-07T06:47:28.635Z,102032.91
2022-10-07T06:49:57.008Z,102031.69
2022-10-07T06:52:24.529Z,102041.13
2022-10-07T06:54:53.047Z,102044.03
2022-10-07T06:57:44.341Z,102041.63
2022-10-07T07:00:10.618Z,102044.72
2022-10-07T07:02:39.021Z,102045.44
2022-10-07T07:05:08.616Z,102046.66
2022-10-07T07:07:38.302Z,102040.84
2022-10-07T07:10:07.396Z,102042.41
2022-10-07T07:12:38.226Z,102047.78
2022-10-07T07:15:07.049Z,102045.59
2022-10-07T07:17:34.690Z,102045.69
2022-10-07T07:20:02.641Z,102048.28
2022-10-07T07:22:31.475Z,102046.94
2022-10-07T07:24:59.544Z,102052.91
2022-10-07T07:27:27.523Z,102054.34
2022-10-07T07:29:56.033Z,102050.13
2022-10-07T07:32:24.068Z,102049.97
2022-10-07T07:37:23.682Z,102051.50
2022-10-07T07:39:55.257Z,102062.34
2022-10-07T07:42:23.050Z,102055.81
2022-10-07T07:44:51.340Z,102055.47
2022-10-07T07:47:21.793Z,102049.06
2022-10-07T07:49:50.771Z,102052.59
2022-10-07T07:52:25.730Z,102050.00
2022-10-07T07:54:58.997Z,102049.72
2022-10-07T07:57:27.318Z,102043.00
2022-10-07T07:59:56.503Z,102045.09
2022-10-07T08:02:24.948Z,102037.38
2022-10-07T08:04:54.015Z,102036.50
2022-10-07T08:07:22.759Z,102042.84
2022-10-07T08:09:51.749Z,102033.13
2022-10-07T08:12:21.210Z,102029.88
2022-10-07T08:14:50.222Z,102033.78
2022-10-07T08:17:18.181Z,102031.47
2022-10-07T08:19:47.050Z,102029.34
2022-10-07T08:22:17.732Z,102029.06
2022-10-07T08:24:49.274Z,102030.00
2022-10-07T08:27:19.483Z,102035.56
2022-10-07T08:29:47.104Z,102026.63
2022-10-07T08:32:15.172Z,102019.53
2022-10-07T08:34:42.942Z,102020.94
2022-10-07T08:37:10.527Z,102019.41
2022-10-07T08:39:38.071Z,102008.63
2022-10-07T08:42:20.743Z,102008.13
2022-10-07T08:44:50.923Z,102002.88
2022-10-07T08:47:34.771Z,102001.13
2022-10-07T08:50:06.549Z,101995.13
2022-10-07T08:52:49.580Z,101994.06
2022-10-07T08:55:30.473Z,101982.19
2022-10-07T08:58:04.656Z,101981.81
2022-10-07T09:01:12.084Z,101988.19
2022-10-07T09:03:45.736Z,101975.06
2022-10-07T09:06:28.306Z,101969.59
2022-10-07T09:09:04.603Z,101967.97
2022-10-07T09:11:35.857Z,101963.59
2022-10-07T09:14:31.549Z,101962.81
2022-10-07T09:17:08.703Z,101954.09
2022-10-07T09:19:43.684Z,101944.19
2022-10-07T09:22:21.457Z,101952.75
2022-10-07T09:25:00.009Z,101941.34
2022-10-07T09:27:27.578Z,101943.41
2022-10-07T09:29:55.167Z,101941.94
2022-10-07T09:32:22.791Z,101943.38
2022-10-07T09:34:52.340Z,101938.44
2022-10-07T09:37:26.204Z,101937.59
2022-10-07T09:39:57.857Z,101937.00
2022-10-07T09:42:40.036Z,101936.16
2022-10-07T09:45:26.479Z,101931.28
2022-10-07T09:47:58.095Z,101933.66
2022-10-07T09:50:43.565Z,101931.81
2022-10-07T09:53:21.059Z,101931.59
2022-10-07T09:55:50.705Z,101927.84
2022-10-07T09:58:29.803Z,101928.63
2022-10-07T10:01:02.033Z,101928.72
2022-10-07T10:03:35.901Z,101923.34
2022-10-07T10:06:04.970Z,101919.94
2022-10-07T10:08:42.806Z,101932.69
2022-10-07T10:11:19.401Z,101930.97
2022-10-07T10:13:50.453Z,101918.38
2022-10-07T10:16:34.065Z,101920.25
2022-10-07T10:19:26.976Z,101917.19
2022-10-07T10:21:56.738Z,101908.84
2022-10-07T10:24:44.908Z,101903.91
2022-10-07T10:27:27.314Z,101905.03
2022-10-07T10:29:54.954Z,101893.34
2022-10-07T10:32:31.415Z,101897.28
2022-10-07T10:35:08.535Z,101885.84
2022-10-07T10:37:41.950Z,101894.41
2022-10-07T10:40:28.194Z,101880.13
2022-10-07T10:43:26.284Z,101877.22
2022-10-07T10:46:35.300Z,101875.53
2022-10-07T10:49:11.200Z,101865.13
2022-10-07T10:52:18.127Z,101861.56
2022-10-07T10:55:04.366Z,101867.69
2022-10-07T10:58:02.209Z,101865.44
2022-10-07T11:00:44.968Z,101857.88
2022-10-07T11:03:32.396Z,101855.72
2022-10-07T11:06:04.268Z,101848.47
2022-10-07T11:08:38.396Z,101838.34
2022-10-07T11:11:15.938Z,101830.00
2022-10-07T11:13:59.712Z,101826.56
2022-10-07T11:16:44.845Z,101814.00
2022-10-07T11:19:36.008Z,101816.25
2022-10-07T11:22:11.903Z,101809.75
2022-10-07T11:24:45.399Z,101808.50
2022-10-07T11:27:27.906Z,101809.94
2022-10-07T11:30:14.270Z,101797.19
2022-10-07T11:32:56.061Z,101798.06
2022-10-07T11:35:34.461Z,101790.00
2022-10-07T11:38:10.952Z,101786.53
2022-10-07T11:40:49.956Z,101779.06
2022-10-07T11:43:27.802Z,101775.50
2022-10-07T11:46:11.529Z,101774.31
2022-10-07T11:48:46.971Z,101766.28
2022-10-07T11:51:27.748Z,101762.56
2022-10-07T11:53:59.669Z,101758.19
2022-10-07T11:56:51.706Z,101750.25
2022-10-07T11:59:46.102Z,101753.47
2022-10-07T12:02:28.813Z,101743.38
2022-10-07T12:05:00.537Z,101741.50
2022-10-07T12:07:33.683Z,101737.78
2022-10-07T12:10:07.676Z,101727.03
2022-10-07T12:12:43.594Z,101719.75
2022-10-07T12:15:35.829Z,101716.72
2022-10-07T12:18:06.164Z,101713.72
2022-10-07T12:20:52.828Z,101703.41
2022-10-07T12:23:20.782Z,101696.19
2022-10-07T12:26:03.434Z,101703.97
2022-10-07T12:28:35.358Z,101685.03
2022-10-07T12:31:15.663Z,101680.31
2022-10-07T12:33:46.113Z,101679.84
2022-10-07T12:36:32.224Z,101673.28
2022-10-07T12:39:03.160Z,101670.56
2022-10-07T12:41:40.019Z,101669.13
2022-10-07T12:44:48.895Z,101662.06
2022-10-07T12:47:29.048Z,101660.97
2022-10-07T12:50:03.287Z,101657.06
2022-10-07T12:52:31.542Z,101659.88
2022-10-07T12:55:04.539Z,101657.28
2022-10-07T12:57:36.557Z,101648.94
2022-10-07T13:00:08.358Z,101654.41
2022-10-07T13:02:55.306Z,101644.69
2022-10-07T13:05:37.949Z,101642.81
2022-10-07T13:08:42.975Z,101634.88
2022-10-07T13:11:13.688Z,101632.41
2022-10-07T13:13:51.912Z,101628.19
2022-10-07T13:16:30.168Z,101627.38
2022-10-07T13:19:16.832Z,101623.78
2022-10-07T13:22:00.035Z,101627.97
2022-10-07T13:24:28.972Z,101612.41
2022-10-07T13:26:57.616Z,101616.25
2022-10-07T13:29:33.010Z,101615.75
2022-10-07T13:32:12.640Z,101614.59
2022-10-07T13:34:40.972Z,101600.28
2022-10-07T13:37:37.790Z,101612.44
2022-10-07T13:40:35.243Z,101600.81
2022-10-07T13:43:08.696Z,101599.50
2022-10-07T13:45:45.286Z,101597.75
2022-10-07T13:48:17.127Z,101593.84
2022-10-07T13:50:45.300Z,101588.91
2022-10-07T13:53:26.938Z,101597.81
2022-10-07T13:56:08.370Z,101584.47
2022-10-07T13:58:37.561Z,101583.06
2022-10-07T14:01:06.341Z,101581.50
2022-10-07T14:03:34.023Z,101579.00
2022-10-07T14:06:02.543Z,101577.69
2022-10-07T14:08:31.459Z,101578.19
2022-10-07T14:11:08.291Z,101571.16
2022-10-07T14:13:37.935Z,101563.31
2022-10-07T14:16:05.716Z,101575.78
2022-10-07T14:18:34.057Z,101566.59
2022-10-07T14:21:17.460Z,101568.84
2022-10-07T14:23:49.772Z,101560.75
2022-10-07T14:26:19.094Z,101549.50
2022-10-07T14:28:47.350Z,101549.84
2022-10-07T14:31:39.687Z,101550.59
2022-10-07T14:34:34.855Z,101545.59
2022-10-07T14:37:27.296Z,101542.56
2022-10-07T14:39:57.388Z,101541.50
2022-10-07T14:42:33.039Z,101532.13
2022-10-07T14:45:03.841Z,101527.00
2022-10-07T14:47:39.120Z,101530.19
2022-10-07T14:50:07.349Z,101519.38
2022-10-07T14:52:47.087Z,101520.66
2022-10-07T14:55:26.488Z,101519.16
2022-10-07T14:57:54.158Z,101521.03
2022-10-07T15:00:27.747Z,101514.75
2022-10-07T15:02:56.969Z,101511.50
2022-10-07T15:05:26.872Z,101518.47
2022-10-07T15:07:54.514Z,101509.56
2022-10-07T15:10:25.326Z,101512.16
2022-10-07T15:12:54.356Z,101503.00
2022-10-07T15:15:21.864Z,101495.25
2022-10-07T15:17:49.387Z,101499.44
2022-10-07T15:20:17.726Z,101495.97
2022-10-07T15:22:46.034Z,101499.47
2022-10-07T15:25:15.599Z,101499.81
2022-10-07T15:27:43.842Z,101496.31
2022-10-07T15:30:12.276Z,101499.38
2022-10-07T15:32:40.393Z,101491.16
2022-10-07T15:35:08.400Z,101489.13
2022-10-07T15:37:36.023Z,101497.78
2022-10-07T15:40:06.754Z,101502.22
2022-10-07T15:42:34.384Z,101492.75
2022-10-07T15:45:02.218Z,101495.53
2022-10-07T15:47:33.373Z,101498.00
2022-10-07T15:50:01.355Z,101498.91
2022-10-07T15:52:28.887Z,101500.25
2022-10-07T15:54:56.841Z,101502.44
2022-10-07T15:57:25.009Z,101495.81
2022-10-07T15:59:54.847Z,101495.97
2022-10-07T16:02:22.581Z,101495.72
2022-10-07T16:04:50.748Z,101490.00
2022-10-07T16:07:18.622Z,101489.06
2022-10-07T16:09:46.256Z,101498.06
2022-10-07T16:12:13.802Z,101490.91
2022-10-07T16:14:41.456Z,101493.13
2022-10-07T16:17:08.985Z,101485.06
2022-10-07T16:19:37.013Z,101491.75
2022-10-07T16:22:05.546Z,101492.22
2022-10-07T16:24:35.474Z,101493.06
2022-10-07T16:27:03.480Z,101483.31
2022-10-07T16:29:50.278Z,101487.63
2022-10-07T16:32:17.869Z,101479.66
2022-10-07T16:34:46.963Z,101491.81
2022-10-07T16:37:15.512Z,101486.72
2022-10-07T16:39:43.609Z,101487.75
2022-10-07T16:42:11.315Z,101487.34
2022-10-07T16:44:39.755Z,101493.59
2022-10-07T16:47:08.114Z,101490.22
2022-10-07T16:49:36.542Z,101493.09
2022-10-07T16:52:04.525Z,101490.84
2022-10-07T16:54:35.547Z,101494.03
2022-10-07T16:57:03.367Z,101491.34
2022-10-07T16:59:31.497Z,101491.88
2022-10-07T17:02:02.498Z,101502.63
2022-10-07T17:04:30.805Z,101495.94
2022-10-07T17:06:58.516Z,101497.63
2022-10-07T17:09:26.754Z,101493.25
2022-10-07T17:11:54.303Z,101496.09
2022-10-07T17:14:23.781Z,101500.94
2022-10-07T17:16:56.206Z,101494.34
2022-10-07T17:19:26.670Z,101504.72
2022-10-07T17:21:56.319Z,101497.38
2022-10-07T17:24:25.004Z,101507.88
2022-10-07T17:26:53.131Z,101510.19
2022-10-07T17:29:23.396Z,101505.72
2022-10-07T17:31:51.514Z,101506.00
2022-10-07T17:34:20.783Z,101512.84
2022-10-07T17:36:50.287Z,101521.59
2022-10-07T17:39:19.461Z,101517.09
2022-10-07T17:41:48.161Z,101514.69
2022-10-07T17:44:15.855Z,101512.44
2022-10-07T17:46:43.761Z,101511.47
2022-10-07T17:51:43.221Z,101520.50
2022-10-07T17:54:13.436Z,101514.00
2022-10-07T17:56:43.458Z,101517.84
2022-10-07T17:59:11.456Z,101521.41
2022-10-07T18:01:39.072Z,101521.81
2022-10-07T18:04:10.799Z,101521.03
2022-10-07T18:06:39.769Z,101526.81
2022-10-07T18:09:09.292Z,101519.50
2022-10-07T18:11:55.778Z,101524.19
2022-10-07T18:14:42.004Z,101516.69
2022-10-07T18:17:11.315Z,101532.78
2022-10-07T18:19:42.253Z,101518.38
2022-10-07T18:22:10.292Z,101527.09
2022-10-07T18:24:38.657Z,101523.41
2022-10-07T18:27:06.447Z,101521.88
2022-10-07T18:29:38.471Z,101520.66
2022-10-07T18:32:07.524Z,101521.91
2022-10-07T18:34:35.218Z,101522.94
2022-10-07T18:37:03.215Z,101521.03
2022-10-07T18:39:30.812Z,101519.25
2022-10-07T18:41:58.970Z,101519.69
2022-10-07T18:44:26.975Z,101521.28
2022-10-07T18:46:55.196Z,101527.38
2022-10-07T18:49:23.560Z,101523.94
2022-10-07T18:51:51.629Z,101522.06
2022-10-07T18:54:20.081Z,101521.41
2022-10-07T18:56:49.161Z,101518.97
2022-10-07T18:59:18.525Z,101515.16
2022-10-07T19:01:50.171Z,101509.84
2022-10-07T19:04:19.774Z,101520.13
2022-10-07T19:06:48.332Z,101514.44
2022-10-07T19:09:20.015Z,101522.84
2022-10-07T19:11:48.279Z,101514.34
2022-10-07T19:14:17.276Z,101515.72
2022-10-07T19:16:49.395Z,101522.47
2022-10-07T19:19:19.817Z,101519.41
2022-10-07T19:21:53.268Z,101515.41
2022-10-07T19:24:42.519Z,101515.78
2022-10-07T19:27:10.067Z,101515.28
2022-10-07T19:29:37.656Z,101512.69
2022-10-07T19:32:08.468Z,101517.47
2022-10-07T19:34:36.575Z,101522.38
2022-10-07T19:37:04.721Z,101522.09
2022-10-07T19:39:32.396Z,101518.13
2022-10-07T19:42:00.315Z,101526.13
2022-10-07T19:44:28.347Z,101527.44
2022-10-07T19:46:55.861Z,101529.28
2022-10-07T19:49:23.848Z,101526.06
2022-10-07T19:51:53.468Z,101525.94
2022-10-07T19:54:21.476Z,101522.88
2022-10-07T19:56:49.494Z,101529.28
2022-10-07T19:59:17.208Z,101531.69
2022-10-07T20:01:47.558Z,101534.34
2022-10-07T20:04:21.012Z,101529.75
2022-10-07T20:06:49.222Z,101527.47
2022-10-07T20:09:18.790Z,101530.00
2022-10-07T20:11:46.977Z,101526.63
2022-10-07T20:14:16.278Z,101535.69
2022-10-07T20:16:45.059Z,101535.72
2022-10-07T20:19:15.903Z,101534.63
2022-10-07T20:21:43.508Z,101535.91
2022-10-07T20:24:17.302Z,101540.19
2022-10-07T20:26:45.424Z,101541.03
2022-10-07T20:29:16.077Z,101544.34
2022-10-07T20:31:44.505Z,101537.94
2022-10-07T20:34:16.101Z,101530.22
2022-10-07T20:36:43.893Z,101535.81
2022-10-07T20:39:39.463Z,101537.97
2022-10-07T20:42:21.575Z,101537.16
2022-10-07T20:44:50.738Z,101534.22
2022-10-07T20:47:19.708Z,101532.25
2022-10-07T20:49:49.032Z,101541.53
2022-10-07T20:52:22.603Z,101542.66
2022-10-07T20:54:51.261Z,101542.97
2022-10-07T20:57:24.433Z,101538.50
2022-10-07T20:59:52.102Z,101536.50
2022-10-07T21:02:21.967Z,101541.16
2022-10-07T21:04:50.600Z,101531.19
2022-10-07T21:07:19.566Z,101533.00
2022-10-07T21:09:47.430Z,101531.97
2022-10-07T21:12:16.968Z,101529.19
2022-10-07T21:14:48.150Z,101530.72
2022-10-07T21:17:16.783Z,101528.28
2022-10-07T21:19:44.471Z,101536.38
2022-10-07T21:22:12.059Z,101526.16
2022-10-07T21:24:39.604Z,101526.88
2022-10-07T21:27:07.919Z,101525.13
2022-10-07T21:29:40.460Z,101532.41
2022-10-07T21:32:10.482Z,101529.03
2022-10-07T21:34:38.561Z,101531.09
2022-10-07T21:37:06.561Z,101522.59
2022-10-07T21:39:34.236Z,101531.50
2022-10-07T21:42:01.974Z,101524.81
2022-10-07T21:44:32.309Z,101529.41
2022-10-07T21:47:00.098Z,101523.31
2022-10-07T21:49:27.829Z,101516.28
2022-10-07T21:51:55.844Z,101523.63
2022-10-07T21:54:23.483Z,101530.16
2022-10-07T21:56:51.493Z,101522.97
2022-10-07T21:59:19.082Z,101522.06
2022-10-07T22:01:46.765Z,101523.66
2022-10-07T22:04:19.038Z,101534.09
2022-10-07T22:07:06.092Z,101521.91
2022-10-07T22:09:35.733Z,101524.09
2022-10-07T22:12:03.464Z,101519.88
2022-10-07T22:14:31.594Z,101517.72
2022-10-07T22:16:59.268Z,101516.88
2022-10-07T22:19:27.067Z,101508.47
2022-10-07T22:21:55.415Z,101511.56
2022-10-07T22:24:24.152Z,101503.28
2022-10-07T22:26:52.398Z,101504.19
2022-10-07T22:29:21.724Z,101495.25
2022-10-07T22:31:49.518Z,101502.31
2022-10-07T22:34:35.964Z,101500.69
2022-10-07T22:37:04.400Z,101491.06
2022-10-07T22:39:32.163Z,101482.97
2022-10-07T22:42:01.213Z,101479.47
2022-10-07T22:44:29.269Z,101487.69
2022-10-07T22:46:59.530Z,101481.88
2022-10-07T22:49:29.961Z,101475.06
2022-10-07T22:52:00.045Z,101481.63
2022-10-07T22:54:28.583Z,101470.41
2022-10-07T22:56:56.284Z,101476.59
2022-10-07T22:59:24.213Z,101467.19
2022-10-07T23:01:52.484Z,101462.66
2022-10-07T23:04:21.493Z,101467.72
2022-10-07T23:06:50.366Z,101466.75
2022-10-07T23:09:18.337Z,101463.00
2022-10-07T23:11:45.947Z,101459.47
2022-10-07T23:14:13.624Z,101456.72
2022-10-07T23:16:42.006Z,101449.84
2022-10-07T23:19:10.319Z,101443.16
2022-10-07T23:21:38.069Z,101454.72
2022-10-07T23:24:08.003Z,101440.34
2022-10-07T23:26:37.331Z,101440.94
2022-10-07T23:29:05.123Z,101449.53
2022-10-07T23:31:33.527Z,101440.03
2022-10-07T23:34:03.182Z,101442.97
2022-10-07T23:36:31.497Z,101435.00
2022-10-07T23:39:00.550Z,101435.09
2022-10-07T23:41:30.901Z,101432.44
2022-10-07T23:44:00.767Z,101425.03
2022-10-07T23:46:33.248Z,101432.69
2022-10-07T23:49:01.086Z,101428.91
2022-10-07T23:51:30.104Z,101427.34
2022-10-07T23:53:59.773Z,101432.50
2022-10-07T23:56:28.197Z,101428.75
2022-10-07T23:58:56.390Z,101431.38
